Time;durP1;ratioP1;P1;durP2;ratioP2;P2;SDS_P1;SDS_P2;PMS_P1;PMS_P2;Temp;Humidity;BMP_temperature;BMP_pressure;BME280_temperature;BME280_humidity;BME280_pressure;Samples;Min_cycle;Max_cycle;Signal;HPM_P1;HPM_P2
2021/06/24 00:00:11;;;;;;;26.13;4.13;;;16.30;99.90;;;;;;5064752;28;20213;-71
2021/06/24 00:02:39;;;;;;;3.70;1.47;;;16.30;99.90;;;;;;5064664;28;20279;-70
2021/06/24 00:05:09;;;;;;;6.57;1.27;;;16.40;99.90;;;;;;5074821;28;20574;-71
2021/06/24 00:07:36;;;;;;;4.70;1.43;;;16.50;99.90;;;;;;5072724;28;20638;-70
2021/06/24 00:10:04;;;;;;;23.23;1.67;;;16.50;99.90;;;;;;5086818;28;20184;-72
2021/06/24 00:12:31;;;;;;;4.07;1.30;;;16.60;99.90;;;;;;5076783;28;20319;-74
2021/06/24 00:14:59;;;;;;;7.17;1.20;;;16.60;99.90;;;;;;5074566;28;20207;-70
2021/06/24 00:17:26;;;;;;;3.63;1.20;;;16.70;99.90;;;;;;5068155;28;20254;-68
2021/06/24 00:19:53;;;;;;;2.47;1.17;;;16.70;99.90;;;;;;5054960;28;20331;-69
2021/06/24 00:22:21;;;;;;;8.50;1.40;;;16.60;99.90;;;;;;5072930;28;20173;-70
2021/06/24 00:24:48;;;;;;;6.17;1.20;;;16.70;99.90;;;;;;5056498;28;20267;-70
2021/06/24 00:27:15;;;;;;;5.90;1.20;;;16.70;99.90;;;;;;5071484;28;20175;-68
2021/06/24 00:29:44;;;;;;;4.53;1.00;;;16.70;99.90;;;;;;5052565;28;20179;-68
2021/06/24 00:32:12;;;;;;;4.43;0.97;;;16.80;99.90;;;;;;5074091;28;20190;-69
2021/06/24 00:34:39;;;;;;;4.73;1.00;;;16.90;99.90;;;;;;5083392;28;20176;-67
2021/06/24 00:37:06;;;;;;;6.10;1.20;;;16.90;99.90;;;;;;5079944;28;20234;-69
2021/06/24 00:39:34;;;;;;;12.47;1.77;;;17.00;99.90;;;;;;5076247;28;20214;-70
2021/06/24 00:42:02;;;;;;;7.40;1.53;;;17.00;99.90;;;;;;5072103;28;20181;-69
2021/06/24 00:44:29;;;;;;;5.73;1.10;;;17.10;99.90;;;;;;5072562;28;20190;-68
2021/06/24 00:46:56;;;;;;;6.23;1.20;;;17.10;99.90;;;;;;5072598;28;20178;-66
2021/06/24 00:49:24;;;;;;;4.63;1.53;;;17.20;99.90;;;;;;5072636;28;20669;-67
2021/06/24 00:51:54;;;;;;;3.50;1.10;;;17.20;99.90;;;;;;5073087;28;20196;-69
2021/06/24 00:54:21;;;;;;;2.43;1.10;;;17.20;99.90;;;;;;5072796;28;20273;-70
2021/06/24 00:56:49;;;;;;;6.27;1.30;;;17.20;99.90;;;;;;5064083;28;20218;-69
2021/06/24 00:59:16;;;;;;;3.37;1.00;;;17.30;99.90;;;;;;5072621;28;20210;-68
2021/06/24 01:01:44;;;;;;;2.07;0.90;;;17.30;99.90;;;;;;5071506;28;20255;-68
2021/06/24 01:04:14;;;;;;;5.30;1.30;;;17.40;99.90;;;;;;5072174;28;20554;-68
2021/06/24 01:06:43;;;;;;;5.70;1.13;;;17.40;99.90;;;;;;5072291;28;20193;-67
2021/06/24 01:09:10;;;;;;;6.40;1.40;;;17.50;99.90;;;;;;5070177;28;20666;-67
2021/06/24 01:11:38;;;;;;;3.50;1.00;;;17.50;99.90;;;;;;5067591;28;20197;-67
2021/06/24 01:14:05;;;;;;;5.17;1.30;;;17.60;99.90;;;;;;5071146;28;20653;-73
2021/06/24 01:16:33;;;;;;;7.40;1.30;;;17.70;99.90;;;;;;5071514;28;20228;-66
2021/06/24 01:19:03;;;;;;;3.37;1.03;;;17.70;99.90;;;;;;5071869;28;20176;-68
2021/06/24 01:21:31;;;;;;;5.63;1.00;;;17.70;99.90;;;;;;5066908;28;20549;-69
2021/06/24 01:24:00;;;;;;;6.40;1.10;;;17.70;99.90;;;;;;5071532;28;20185;-71
2021/06/24 01:26:31;;;;;;;5.40;1.00;;;17.70;99.90;;;;;;5068655;28;20186;-68
2021/06/24 01:28:58;;;;;;;11.67;1.57;;;17.70;99.90;;;;;;5071892;28;20209;-65
2021/06/24 01:31:25;;;;;;;7.93;1.27;;;17.80;99.90;;;;;;5065694;28;20640;-67
2021/06/24 01:33:57;;;;;;;4.23;1.10;;;17.80;99.90;;;;;;5072468;28;20190;-70
2021/06/24 01:36:24;;;;;;;3.13;1.00;;;17.80;99.90;;;;;;5072158;28;20172;-68
2021/06/24 01:38:51;;;;;;;7.43;1.03;;;17.90;99.90;;;;;;5069644;28;20278;-69
2021/06/24 01:41:19;;;;;;;4.97;1.60;;;18.00;99.90;;;;;;5065425;28;20191;-68
2021/06/24 01:43:46;;;;;;;7.17;1.30;;;18.10;99.90;;;;;;5067563;28;20201;-72
2021/06/24 01:46:14;;;;;;;7.30;1.50;;;18.20;99.90;;;;;;5068033;28;20212;-73
2021/06/24 01:48:42;;;;;;;6.13;1.50;;;18.30;99.90;;;;;;5067485;28;20187;-73
2021/06/24 01:51:09;;;;;;;20.30;1.70;;;18.40;99.90;;;;;;5066495;28;20209;-70
2021/06/24 01:53:37;;;;;;;4.33;1.40;;;18.80;99.90;;;;;;5068793;28;20526;-75
2021/06/24 01:56:05;;;;;;;4.90;1.43;;;19.20;99.90;;;;;;5062573;28;20192;-74
2021/06/24 01:58:32;;;;;;;3.63;1.20;;;19.30;99.90;;;;;;5069357;28;20237;-73
2021/06/24 02:01:04;;;;;;;4.97;1.13;;;19.50;99.90;;;;;;5071638;28;20218;-70
2021/06/24 02:03:36;;;;;;;5.90;1.57;;;19.80;99.90;;;;;;5071831;28;20183;-72
2021/06/24 02:06:03;;;;;;;4.07;1.10;;;19.90;99.90;;;;;;5071947;28;20193;-72
2021/06/24 02:08:31;;;;;;;8.77;1.00;;;19.80;99.90;;;;;;5069675;28;20183;-76
2021/06/24 02:10:59;;;;;;;5.63;0.97;;;19.40;99.90;;;;;;5070771;28;20187;-73
2021/06/24 02:13:27;;;;;;;4.37;1.13;;;19.30;99.90;;;;;;5070632;28;20187;-74
2021/06/24 02:15:56;;;;;;;5.10;1.03;;;19.30;99.90;;;;;;5070659;28;20197;-71
2021/06/24 02:18:23;;;;;;;5.20;1.27;;;19.40;99.90;;;;;;5068351;28;20249;-68
2021/06/24 02:20:51;;;;;;;4.07;1.00;;;19.40;99.90;;;;;;5071826;28;20302;-70
2021/06/24 02:23:18;;;;;;;4.03;1.07;;;19.50;99.90;;;;;;5068563;28;20266;-73
2021/06/24 02:25:49;;;;;;;5.10;1.27;;;19.50;99.90;;;;;;5063414;28;20241;-73
2021/06/24 02:28:17;;;;;;;5.10;1.00;;;19.50;99.90;;;;;;5066734;28;20191;-70
2021/06/24 02:30:45;;;;;;;4.17;1.33;;;19.60;99.90;;;;;;5070073;28;20664;-68
2021/06/24 02:33:15;;;;;;;3.33;1.53;;;19.60;99.90;;;;;;5068941;28;20638;-74
2021/06/24 02:35:48;;;;;;;4.80;1.20;;;19.70;99.90;;;;;;5067160;28;20183;-70
2021/06/24 02:38:18;;;;;;;4.60;1.73;;;19.80;99.90;;;;;;5067991;28;20833;-71
2021/06/24 02:40:49;;;;;;;4.37;0.70;;;19.90;99.90;;;;;;5062758;28;20275;-73
2021/06/24 02:43:16;;;;;;;5.40;1.27;;;20.00;99.90;;;;;;5066468;28;20179;-74
2021/06/24 02:45:44;;;;;;;9.83;1.10;;;20.00;99.90;;;;;;5069583;28;20262;-76
2021/06/24 02:48:12;;;;;;;3.47;0.93;;;20.10;99.90;;;;;;5068851;28;20559;-71
2021/06/24 02:50:39;;;;;;;3.77;1.00;;;20.30;99.90;;;;;;5067573;28;20558;-72
2021/06/24 02:53:07;;;;;;;4.03;0.80;;;20.30;99.90;;;;;;5070052;28;20218;-73
2021/06/24 02:55:35;;;;;;;3.30;1.13;;;20.20;99.90;;;;;;5070207;28;20195;-72
2021/06/24 02:58:02;;;;;;;3.30;0.90;;;20.30;99.90;;;;;;5070700;28;20223;-70
2021/06/24 03:00:31;;;;;;;27.87;3.30;;;20.60;99.90;;;;;;5071081;28;20230;-71
2021/06/24 03:02:58;;;;;;;3.43;1.17;;;20.90;99.90;;;;;;5064439;28;20179;-71
2021/06/24 03:05:26;;;;;;;8.50;1.43;;;21.30;99.90;;;;;;5074277;28;20183;-68
2021/06/24 03:07:53;;;;;;;4.40;1.40;;;21.30;99.90;;;;;;5074859;28;20175;-68
2021/06/24 03:10:22;;;;;;;8.90;1.10;;;21.20;99.90;;;;;;5073235;28;20282;-66
2021/06/24 03:12:49;;;;;;;7.90;1.13;;;20.90;99.90;;;;;;5070095;28;20634;-68
2021/06/24 03:15:18;;;;;;;2.97;0.93;;;21.00;99.90;;;;;;5072309;28;20188;-71
2021/06/24 03:17:47;;;;;;;3.73;0.80;;;20.90;99.90;;;;;;5075053;28;20678;-70
2021/06/24 03:20:15;;;;;;;2.90;0.80;;;21.00;99.90;;;;;;5072431;28;20211;-67
2021/06/24 03:22:42;;;;;;;5.23;1.30;;;21.10;99.90;;;;;;5075048;28;20213;-69
2021/06/24 03:25:12;;;;;;;8.37;1.30;;;21.50;99.90;;;;;;5067816;28;20281;-66
2021/06/24 03:27:41;;;;;;;4.23;0.90;;;21.60;99.90;;;;;;5072589;28;20214;-67
2021/06/24 03:30:11;;;;;;;4.97;1.00;;;21.40;99.90;;;;;;5074047;28;20191;-73
2021/06/24 03:32:38;;;;;;;6.00;1.30;;;21.20;99.90;;;;;;5073461;28;20228;-71
2021/06/24 03:35:06;;;;;;;7.57;1.30;;;21.10;99.90;;;;;;5072318;28;20653;-72
2021/06/24 03:37:34;;;;;;;9.87;1.23;;;21.10;99.90;;;;;;5074876;28;20218;-69
2021/06/24 03:40:02;;;;;;;9.37;1.20;;;21.10;99.90;;;;;;5072999;28;20215;-70
2021/06/24 03:42:29;;;;;;;13.47;1.60;;;21.20;99.90;;;;;;5072799;28;20183;-71
2021/06/24 03:44:56;;;;;;;5.80;1.20;;;21.50;99.90;;;;;;5071210;28;20241;-71
2021/06/24 03:47:24;;;;;;;15.83;1.20;;;22.10;99.90;;;;;;5074265;28;20179;-71
2021/06/24 03:49:51;;;;;;;5.23;1.23;;;22.50;99.80;;;;;;5073899;28;20232;-68
2021/06/24 03:52:19;;;;;;;1.97;0.90;;;22.50;99.40;;;;;;5073593;28;20180;-68
2021/06/24 03:54:46;;;;;;;3.73;1.57;;;22.20;99.60;;;;;;5071406;28;20207;-68
2021/06/24 03:57:14;;;;;;;4.00;1.10;;;22.00;99.90;;;;;;5073358;28;20223;-68
2021/06/24 03:59:41;;;;;;;4.63;1.37;;;21.80;99.90;;;;;;5072835;28;20564;-70
2021/06/24 04:02:08;;;;;;;9.13;1.50;;;21.60;99.90;;;;;;5073317;28;20254;-69
2021/06/24 04:04:37;;;;;;;2.80;1.03;;;21.60;99.90;;;;;;5073216;28;20229;-72
2021/06/24 04:07:04;;;;;;;5.10;1.00;;;22.10;99.60;;;;;;5071993;28;20183;-68
2021/06/24 04:09:32;;;;;;;12.60;1.60;;;22.40;98.80;;;;;;5073962;28;20641;-71
2021/06/24 04:11:59;;;;;;;26.60;2.70;;;22.70;98.60;;;;;;5073806;28;20212;-67
2021/06/24 04:14:26;;;;;;;8.00;1.20;;;22.50;98.60;;;;;;5069298;28;20179;-70
2021/06/24 04:16:54;;;;;;;4.73;0.83;;;22.10;99.00;;;;;;5073444;28;20180;-70
2021/06/24 04:19:21;;;;;;;5.67;1.03;;;21.60;99.80;;;;;;5073305;28;20665;-67
2021/06/24 04:21:49;;;;;;;4.90;1.03;;;21.70;99.90;;;;;;5072319;28;20191;-67
2021/06/24 04:24:16;;;;;;;3.73;1.00;;;21.60;99.90;;;;;;5073694;28;20232;-69
2021/06/24 04:26:43;;;;;;;2.70;0.80;;;21.20;99.90;;;;;;5074070;28;20186;-70
2021/06/24 04:29:11;;;;;;;2.67;1.00;;;21.10;99.90;;;;;;5074087;28;20560;-70
2021/06/24 04:31:38;;;;;;;5.60;1.20;;;21.00;99.90;;;;;;5073185;28;20559;-68
2021/06/24 04:34:06;;;;;;;5.10;1.07;;;21.00;99.90;;;;;;5073817;28;20520;-67
2021/06/24 04:36:34;;;;;;;4.27;1.20;;;20.90;99.90;;;;;;5072779;28;20645;-67
2021/06/24 04:39:02;;;;;;;5.97;1.23;;;21.00;99.90;;;;;;5073379;28;20629;-71
2021/06/24 04:41:35;;;;;;;12.37;1.63;;;21.50;99.90;;;;;;5074010;28;20183;-73
2021/06/24 04:44:02;;;;;;;3.03;1.00;;;21.40;99.90;;;;;;5073116;28;20274;-69
2021/06/24 04:46:30;;;;;;;7.80;1.40;;;21.50;99.90;;;;;;5073511;28;20179;-72
2021/06/24 04:48:57;;;;;;;8.13;1.30;;;21.20;99.90;;;;;;5072262;28;20614;-77
2021/06/24 04:51:25;;;;;;;7.00;1.50;;;21.00;99.90;;;;;;5072840;28;20188;-72
2021/06/24 04:53:52;;;;;;;4.50;1.20;;;20.90;99.90;;;;;;5072543;28;20283;-69
2021/06/24 04:56:19;;;;;;;4.97;1.40;;;20.70;99.90;;;;;;5071823;28;20604;-71
2021/06/24 04:58:47;;;;;;;6.00;1.03;;;20.70;99.90;;;;;;5072122;28;20229;-71
2021/06/24 05:01:15;;;;;;;8.67;1.50;;;20.50;99.90;;;;;;5071149;28;20303;-71
2021/06/24 05:03:45;;;;;;;2.77;1.17;;;20.50;99.90;;;;;;5072072;28;20175;-69
2021/06/24 05:06:14;;;;;;;3.37;0.90;;;20.50;99.90;;;;;;5053721;28;20201;-72
2021/06/24 05:08:42;;;;;;;7.10;1.47;;;20.40;99.90;;;;;;5072367;28;20181;-72
2021/06/24 05:11:09;;;;;;;8.17;1.13;;;20.40;99.90;;;;;;5072437;28;20240;-71
2021/06/24 05:13:36;;;;;;;3.70;1.40;;;20.30;99.90;;;;;;5062530;28;20183;-71
2021/06/24 05:16:08;;;;;;;12.73;1.90;;;20.30;99.90;;;;;;5073367;28;20234;-69
2021/06/24 05:18:36;;;;;;;4.63;1.37;;;20.30;99.90;;;;;;5072812;28;20179;-72
2021/06/24 05:21:09;;;;;;;9.77;1.53;;;20.30;99.90;;;;;;5072165;28;20572;-71
2021/06/24 05:23:40;;;;;;;7.83;1.50;;;20.30;99.90;;;;;;5072383;28;20577;-71
2021/06/24 05:26:08;;;;;;;6.43;1.30;;;20.20;99.90;;;;;;5072938;28;20183;-74
2021/06/24 05:28:35;;;;;;;6.10;1.10;;;20.30;99.90;;;;;;5072177;28;20206;-75
2021/06/24 05:31:03;;;;;;;8.70;1.10;;;20.20;99.90;;;;;;5072808;28;20175;-72
2021/06/24 05:33:30;;;;;;;8.40;1.53;;;20.20;99.90;;;;;;5071751;28;20549;-73
2021/06/24 05:35:57;;;;;;;3.77;1.00;;;20.20;99.90;;;;;;5072248;28;20191;-73
2021/06/24 05:38:26;;;;;;;5.17;1.57;;;20.20;99.90;;;;;;5070876;28;20274;-74
2021/06/24 05:40:56;;;;;;;4.17;1.10;;;20.30;99.90;;;;;;5069455;28;20285;-69
2021/06/24 05:43:23;;;;;;;6.83;1.27;;;20.30;99.90;;;;;;5070731;28;20187;-76
2021/06/24 05:45:51;;;;;;;8.43;1.20;;;20.30;99.90;;;;;;5071985;28;20202;-68
2021/06/24 05:48:18;;;;;;;5.93;1.17;;;20.40;99.90;;;;;;5072455;28;20183;-72
2021/06/24 05:50:46;;;;;;;4.33;0.90;;;20.40;99.90;;;;;;5072433;28;20182;-69
2021/06/24 05:53:13;;;;;;;3.93;0.93;;;20.40;99.90;;;;;;5070259;28;20195;-68
2021/06/24 05:55:52;;;;;;;3.07;1.10;;;20.40;99.90;;;;;;5071248;28;20171;-72
2021/06/24 05:58:30;;;;;;;8.20;2.60;;;20.30;99.90;;;;;;5071548;28;20226;-71
2021/06/24 06:00:59;;;;;;;5.50;1.03;;;20.40;99.90;;;;;;5059282;28;20322;-72
2021/06/24 06:03:27;;;;;;;4.77;1.70;;;20.30;99.90;;;;;;5072198;28;20190;-66
2021/06/24 06:05:55;;;;;;;4.67;1.20;;;20.30;99.90;;;;;;5065719;28;20289;-71
2021/06/24 06:08:23;;;;;;;4.67;1.10;;;20.20;99.90;;;;;;5071626;28;20179;-69
2021/06/24 06:10:51;;;;;;;5.83;1.20;;;20.20;99.90;;;;;;5069222;28;20232;-66
2021/06/24 06:13:19;;;;;;;6.47;1.20;;;20.30;99.90;;;;;;5059795;28;20229;-70
2021/06/24 06:15:48;;;;;;;4.73;1.30;;;20.30;99.90;;;;;;5052452;28;20662;-73
2021/06/24 06:18:21;;;;;;;8.30;1.30;;;20.30;99.90;;;;;;5072364;28;20175;-67
2021/06/24 06:20:49;;;;;;;4.57;1.27;;;20.30;99.90;;;;;;5070844;28;20305;-72
2021/06/24 06:23:19;;;;;;;4.37;1.47;;;20.20;99.90;;;;;;5063822;28;20187;-71
2021/06/24 06:25:47;;;;;;;5.53;1.00;;;20.30;99.90;;;;;;5060122;28;20191;-66
2021/06/24 06:28:16;;;;;;;6.87;1.10;;;20.20;99.90;;;;;;5071123;28;20706;-71
2021/06/24 06:30:46;;;;;;;5.00;1.20;;;20.10;99.90;;;;;;5070886;28;20179;-68
2021/06/24 06:33:13;;;;;;;8.37;1.20;;;20.00;99.90;;;;;;5072332;28;20710;-73
2021/06/24 06:35:41;;;;;;;6.23;1.60;;;19.90;99.90;;;;;;5071280;28;20241;-70
2021/06/24 06:38:08;;;;;;;5.93;1.63;;;19.80;99.90;;;;;;5071687;28;20171;-71
2021/06/24 06:40:36;;;;;;;8.80;1.60;;;19.80;99.90;;;;;;5075067;28;20223;-69
2021/06/24 06:43:04;;;;;;;4.23;1.30;;;19.70;99.90;;;;;;5076326;28;20201;-70
2021/06/24 06:45:33;;;;;;;5.93;1.20;;;19.60;99.90;;;;;;5075594;28;20758;-69
2021/06/24 06:48:01;;;;;;;6.80;1.27;;;19.50;99.90;;;;;;5073650;28;20446;-71
2021/06/24 06:50:31;;;;;;;6.90;1.53;;;19.50;99.90;;;;;;5073104;28;20205;-71
2021/06/24 06:52:58;;;;;;;4.97;1.30;;;19.50;99.90;;;;;;5074522;28;20256;-71
2021/06/24 06:55:29;;;;;;;5.10;1.30;;;19.40;99.90;;;;;;5075550;28;20256;-75
2021/06/24 06:57:57;;;;;;;8.70;1.20;;;19.40;99.90;;;;;;5074630;28;20210;-70
2021/06/24 07:00:25;;;;;;;4.97;0.90;;;19.30;99.90;;;;;;5069868;28;20673;-71
2021/06/24 07:02:53;;;;;;;5.33;1.47;;;19.40;99.90;;;;;;5075819;28;20180;-69
2021/06/24 07:05:20;;;;;;;5.47;1.07;;;19.30;99.90;;;;;;5075777;28;20202;-75
2021/06/24 07:07:48;;;;;;;6.33;1.40;;;19.30;99.90;;;;;;5070171;28;20202;-72
2021/06/24 07:10:16;;;;;;;7.03;1.10;;;19.30;99.90;;;;;;5074347;28;20266;-67
2021/06/24 07:12:43;;;;;;;2.13;1.17;;;19.30;99.90;;;;;;5074866;28;20541;-68
2021/06/24 07:15:13;;;;;;;3.10;1.03;;;19.30;99.90;;;;;;5075725;28;20172;-69
2021/06/24 07:17:41;;;;;;;5.57;1.30;;;19.30;99.90;;;;;;5067337;28;20642;-70
2021/06/24 07:20:09;;;;;;;4.20;1.27;;;19.30;99.90;;;;;;5071598;28;20215;-67
2021/06/24 07:22:37;;;;;;;3.47;1.10;;;19.30;99.90;;;;;;5069055;28;20183;-70
2021/06/24 07:25:07;;;;;;;2.80;1.27;;;19.30;99.90;;;;;;5066725;28;20192;-71
2021/06/24 07:27:34;;;;;;;6.40;1.60;;;19.20;99.90;;;;;;5071349;28;20327;-72
2021/06/24 07:30:02;;;;;;;4.43;1.13;;;19.10;99.90;;;;;;5074749;28;20187;-70
2021/06/24 07:32:30;;;;;;;5.63;1.47;;;19.20;99.90;;;;;;5059698;28;20790;-72
2021/06/24 07:34:57;;;;;;;6.10;1.50;;;19.20;99.90;;;;;;5063376;28;20187;-73
2021/06/24 07:37:24;;;;;;;6.43;2.00;;;19.10;99.90;;;;;;5074750;28;20818;-74
2021/06/24 07:39:52;;;;;;;5.83;2.17;;;19.00;99.90;;;;;;5074715;28;20210;-72
2021/06/24 07:42:19;;;;;;;5.67;1.60;;;18.90;99.90;;;;;;5074458;28;20218;-73
2021/06/24 07:44:47;;;;;;;6.70;1.40;;;18.90;99.90;;;;;;5074652;28;20171;-75
2021/06/24 07:47:18;;;;;;;4.13;1.10;;;18.80;99.90;;;;;;5074704;28;20175;-70
2021/06/24 07:49:47;;;;;;;7.10;1.70;;;18.80;99.90;;;;;;5074847;28;20190;-74
2021/06/24 07:52:15;;;;;;;3.57;2.33;;;18.80;99.90;;;;;;5074671;28;20187;-73
2021/06/24 07:54:42;;;;;;;7.87;3.03;;;18.70;99.90;;;;;;5074512;28;20266;-73
2021/06/24 07:57:11;;;;;;;3.43;1.00;;;18.70;99.90;;;;;;5073971;28;20222;-70
2021/06/24 07:59:38;;;;;;;4.80;1.40;;;18.70;99.90;;;;;;5074510;28;20238;-72
2021/06/24 08:02:06;;;;;;;4.13;1.40;;;18.60;99.90;;;;;;5067087;28;20192;-71
2021/06/24 08:04:35;;;;;;;6.07;1.63;;;18.60;99.90;;;;;;5068487;28;20179;-69
2021/06/24 08:07:03;;;;;;;3.00;1.30;;;18.50;99.90;;;;;;5082669;28;20191;-73
2021/06/24 08:09:30;;;;;;;5.43;1.17;;;18.60;99.90;;;;;;5066984;28;20185;-71
2021/06/24 08:11:58;;;;;;;3.57;1.33;;;18.50;99.90;;;;;;5073849;28;20179;-71
2021/06/24 08:14:26;;;;;;;4.40;1.33;;;18.50;99.90;;;;;;5074215;28;20186;-72
2021/06/24 08:16:53;;;;;;;4.70;1.20;;;18.50;99.90;;;;;;5074096;28;20228;-74
2021/06/24 08:19:20;;;;;;;4.20;1.30;;;18.50;99.90;;;;;;5074188;28;20193;-75
2021/06/24 08:21:48;;;;;;;4.10;1.20;;;18.50;99.90;;;;;;5074508;28;20186;-71
2021/06/24 08:24:15;;;;;;;8.60;1.27;;;18.40;99.90;;;;;;5073923;28;20175;-73
2021/06/24 08:26:45;;;;;;;2.73;1.17;;;18.40;99.90;;;;;;5073776;28;20231;-73
2021/06/24 08:29:12;;;;;;;5.53;1.50;;;18.40;99.90;;;;;;5073977;28;20278;-72
2021/06/24 08:31:42;;;;;;;3.67;1.20;;;18.40;99.90;;;;;;5073916;28;20175;-73
2021/06/24 08:34:09;;;;;;;3.20;1.00;;;18.40;99.90;;;;;;5058681;28;20183;-70
2021/06/24 08:36:37;;;;;;;4.30;1.37;;;18.40;99.90;;;;;;5073414;28;20187;-66
2021/06/24 08:39:05;;;;;;;8.30;1.50;;;18.40;99.90;;;;;;5072796;28;20336;-72
2021/06/24 08:41:33;;;;;;;4.00;1.47;;;18.40;99.90;;;;;;5074142;28;20641;-73
2021/06/24 08:44:00;;;;;;;4.23;1.40;;;18.40;99.90;;;;;;5073694;28;20191;-69
2021/06/24 08:46:29;;;;;;;3.73;1.63;;;18.50;99.90;;;;;;5065958;28;20182;-67
2021/06/24 08:48:58;;;;;;;4.20;1.90;;;18.50;99.90;;;;;;5073684;28;20208;-68
2021/06/24 08:51:26;;;;;;;2.13;1.23;;;18.50;99.90;;;;;;5073463;28;20178;-71
2021/06/24 08:53:55;;;;;;;4.80;1.27;;;18.50;99.90;;;;;;5073570;28;20167;-71
2021/06/24 08:56:22;;;;;;;2.87;1.20;;;18.40;99.90;;;;;;5068580;28;20522;-66
2021/06/24 08:58:52;;;;;;;4.20;1.30;;;18.40;99.90;;;;;;5072216;28;20285;-65
2021/06/24 09:01:20;;;;;;;3.93;1.30;;;18.40;99.90;;;;;;5072611;28;20226;-69
2021/06/24 09:03:49;;;;;;;5.83;1.40;;;18.30;99.90;;;;;;5073452;28;20176;-66
2021/06/24 09:06:18;;;;;;;5.93;1.20;;;18.20;99.90;;;;;;5071541;28;20240;-66
2021/06/24 09:08:47;;;;;;;4.37;1.47;;;18.20;99.90;;;;;;5072905;28;20544;-69
2021/06/24 09:11:17;;;;;;;7.87;1.63;;;18.10;99.90;;;;;;5073479;28;20226;-71
2021/06/24 09:13:57;;;;;;;3.00;1.30;;;18.00;99.90;;;;;;5072450;28;20183;-69
2021/06/24 09:16:30;;;;;;;4.30;1.87;;;18.00;99.90;;;;;;5072485;28;20181;-68
2021/06/24 09:19:19;;;;;;;3.47;1.93;;;17.90;99.90;;;;;;5068580;28;20187;-72
2021/06/24 09:21:57;;;;;;;7.57;1.80;;;17.90;99.90;;;;;;5073352;28;20227;-69
2021/06/24 09:24:34;;;;;;;5.17;2.13;;;17.80;99.90;;;;;;5072908;28;20206;-68
2021/06/24 09:27:05;;;;;;;6.80;2.57;;;17.70;99.90;;;;;;5072549;28;20187;-72
2021/06/24 09:29:35;;;;;;;8.17;2.47;;;17.60;99.90;;;;;;5070878;28;20253;-73
2021/06/24 09:32:03;;;;;;;6.30;2.07;;;17.60;99.90;;;;;;5072588;28;20197;-71
2021/06/24 09:34:30;;;;;;;4.60;2.30;;;17.50;99.90;;;;;;5060077;28;20205;-70
2021/06/24 09:37:03;;;;;;;7.23;2.50;;;17.50;99.90;;;;;;5072941;28;20734;-70
2021/06/24 09:39:37;;;;;;;5.60;2.40;;;17.40;99.90;;;;;;5071148;28;20223;-67
2021/06/24 09:42:10;;;;;;;5.10;2.20;;;17.40;99.90;;;;;;5066140;28;20692;-68
2021/06/24 09:44:48;;;;;;;4.87;1.70;;;17.40;99.90;;;;;;5067872;28;20178;-71
2021/06/24 09:47:29;;;;;;;3.50;1.90;;;17.40;99.90;;;;;;5065052;28;20178;-71
2021/06/24 09:50:01;;;;;;;7.07;1.80;;;17.40;99.90;;;;;;5072672;28;20282;-68
2021/06/24 09:52:30;;;;;;;3.63;1.40;;;17.40;99.90;;;;;;5072800;28;20171;-70
2021/06/24 09:55:11;;;;;;;2.13;1.30;;;17.40;99.90;;;;;;5071220;28;20185;-68
2021/06/24 09:57:39;;;;;;;7.47;1.57;;;17.40;99.90;;;;;;5072391;28;20221;-70
2021/06/24 10:00:48;;;;;;;5.90;1.57;;;17.50;99.90;;;;;;5071006;28;20644;-70
2021/06/24 10:03:15;;;;;;;10.33;2.50;;;17.50;99.90;;;;;;5041842;28;20205;-72
2021/06/24 10:05:44;;;;;;;5.20;1.67;;;17.50;99.90;;;;;;5071757;28;20175;-70
2021/06/24 10:08:14;;;;;;;4.70;1.90;;;17.50;99.90;;;;;;5071466;28;20288;-67
2021/06/24 10:10:45;;;;;;;5.90;1.53;;;17.50;99.90;;;;;;5071581;28;20206;-66
2021/06/24 10:13:12;;;;;;;3.83;1.40;;;17.50;99.90;;;;;;5066539;28;20185;-67
2021/06/24 10:15:40;;;;;;;7.03;1.70;;;17.40;99.90;;;;;;5071983;28;20308;-68
2021/06/24 10:18:08;;;;;;;3.37;1.30;;;17.40;99.90;;;;;;5072578;28;20709;-71
2021/06/24 10:20:35;;;;;;;4.53;1.63;;;17.40;99.90;;;;;;5071780;28;20616;-74
2021/06/24 10:23:14;;;;;;;6.20;1.77;;;17.40;99.90;;;;;;5071295;28;20664;-68
2021/06/24 10:25:44;;;;;;;7.10;1.60;;;17.30;99.90;;;;;;5063724;28;20220;-68
2021/06/24 10:28:12;;;;;;;4.57;1.70;;;17.30;99.90;;;;;;5072512;28;20205;-70
2021/06/24 10:30:42;;;;;;;2.23;1.33;;;17.40;99.90;;;;;;5063686;28;20237;-69
2021/06/24 10:33:17;;;;;;;2.17;1.00;;;17.40;99.90;;;;;;5065833;28;20696;-68
2021/06/24 10:35:49;;;;;;;2.50;1.27;;;17.30;99.90;;;;;;5072000;28;20182;-68
2021/06/24 10:38:18;;;;;;;3.47;1.30;;;17.20;99.90;;;;;;5068639;28;20225;-69
2021/06/24 10:41:00;;;;;;;3.17;1.53;;;17.00;99.90;;;;;;5071639;28;20218;-67
2021/06/24 10:43:49;;;;;;;3.10;1.20;;;17.00;99.90;;;;;;5079836;28;20190;-72
2021/06/24 10:46:20;;;;;;;2.77;1.10;;;16.90;99.90;;;;;;5072973;28;20269;-73
2021/06/24 10:48:48;;;;;;;3.57;1.47;;;16.80;99.90;;;;;;5069396;28;20187;-70
2021/06/24 10:51:17;;;;;;;1.83;1.10;;;16.80;99.90;;;;;;5071969;28;20172;-71
2021/06/24 10:53:53;;;;;;;4.70;1.40;;;16.80;99.90;;;;;;5075036;28;20191;-69
2021/06/24 10:56:43;;;;;;;3.13;1.27;;;16.70;99.90;;;;;;5071652;28;20185;-77
2021/06/24 10:59:31;;;;;;;2.07;1.67;;;16.70;99.90;;;;;;5072187;28;20255;-73
2021/06/24 11:02:06;;;;;;;7.33;3.30;;;16.70;99.90;;;;;;5073413;28;20281;-76
2021/06/24 11:04:39;;;;;;;4.47;2.10;;;16.60;99.90;;;;;;5071375;28;20202;-75
2021/06/24 11:07:18;;;;;;;1.73;1.40;;;16.50;99.90;;;;;;5072234;28;20186;-74
2021/06/24 11:10:13;;;;;;;6.90;3.60;;;16.40;99.90;;;;;;5075111;28;20186;-74
2021/06/24 11:12:58;;;;;;;4.60;2.03;;;16.40;99.90;;;;;;5071855;28;20175;-73
2021/06/24 11:15:45;;;;;;;3.43;2.10;;;16.40;99.90;;;;;;5058116;28;20227;-71
2021/06/24 11:18:33;;;;;;;2.23;1.47;;;16.40;99.90;;;;;;5072560;28;20171;-69
2021/06/24 11:21:10;;;;;;;4.20;1.70;;;16.40;99.90;;;;;;5082310;28;20217;-67
2021/06/24 11:24:01;;;;;;;4.33;1.63;;;16.30;99.90;;;;;;5070559;28;20206;-74
2021/06/24 11:26:28;;;;;;;4.90;1.40;;;16.30;99.90;;;;;;5083493;28;20189;-67
2021/06/24 11:29:39;;;;;;;7.03;1.60;;;16.30;99.90;;;;;;5068082;28;20190;-66
2021/06/24 11:32:29;;;;;;;4.17;1.53;;;16.40;99.90;;;;;;5074964;28;20181;-67
2021/06/24 11:35:14;;;;;;;6.47;1.97;;;16.40;99.90;;;;;;5072078;28;20206;-70
2021/06/24 11:37:41;;;;;;;4.87;1.60;;;16.40;99.90;;;;;;5074914;28;20235;-73
2021/06/24 11:40:10;;;;;;;11.93;2.17;;;16.40;99.90;;;;;;5076834;28;21099;-70
2021/06/24 11:42:46;;;;;;;6.10;2.00;;;16.30;99.90;;;;;;5084818;28;20624;-73
2021/06/24 11:45:18;;;;;;;5.20;2.30;;;16.30;99.90;;;;;;5074023;28;20183;-71
2021/06/24 11:47:46;;;;;;;9.20;2.50;;;16.30;99.90;;;;;;5073619;28;20191;-73
2021/06/24 12:04:19;;;;;;;5.50;1.73;;;16.00;99.90;;;;;;5074660;28;20195;-68
2021/06/24 12:07:07;;;;;;;2.63;1.60;;;15.90;99.90;;;;;;5089720;28;20193;-67
2021/06/24 12:09:49;;;;;;;4.53;1.50;;;16.00;99.90;;;;;;5070579;28;20177;-70
2021/06/24 12:12:19;;;;;;;3.70;1.47;;;16.00;99.90;;;;;;5078337;28;20241;-72
2021/06/24 12:14:48;;;;;;;3.07;1.93;;;15.90;99.90;;;;;;5084536;28;20267;-75
2021/06/24 12:17:15;;;;;;;4.37;1.90;;;15.90;99.90;;;;;;5074521;28;20507;-68
2021/06/24 12:19:55;;;;;;;7.13;2.17;;;15.80;99.90;;;;;;5068706;28;20205;-67
2021/06/24 12:22:38;;;;;;;7.63;1.63;;;15.80;99.90;;;;;;5074281;28;20654;-66
2021/06/24 12:25:11;;;;;;;5.07;1.53;;;15.80;99.90;;;;;;5071034;28;20261;-67
2021/06/24 12:27:46;;;;;;;3.33;1.70;;;15.80;99.90;;;;;;5061890;28;20677;-69
2021/06/24 12:30:18;;;;;;;1.80;1.33;;;15.80;99.90;;;;;;5074311;28;20241;-73
2021/06/24 12:32:52;;;;;;;6.57;1.60;;;15.80;99.90;;;;;;5070261;28;20295;-68
2021/06/24 12:35:30;;;;;;;4.47;1.30;;;15.90;99.90;;;;;;5097067;28;20220;-68
2021/06/24 12:38:00;;;;;;;2.20;1.17;;;15.90;99.90;;;;;;5072871;28;20187;-70
2021/06/24 12:40:33;;;;;;;3.20;1.20;;;16.00;99.90;;;;;;5074107;28;20199;-70
2021/06/24 12:43:01;;;;;;;2.90;1.43;;;16.00;99.90;;;;;;5074048;28;20190;-73
2021/06/24 12:45:32;;;;;;;5.23;1.40;;;16.00;99.90;;;;;;5074218;28;20179;-74
2021/06/24 12:48:00;;;;;;;4.03;1.17;;;16.10;99.90;;;;;;5074341;28;20673;-73
2021/06/24 12:50:33;;;;;;;6.00;1.83;;;16.00;99.90;;;;;;5059870;28;20241;-72
2021/06/24 12:53:04;;;;;;;2.23;1.10;;;16.10;99.90;;;;;;5070678;28;20199;-75
2021/06/24 12:55:52;;;;;;;3.00;1.03;;;16.00;99.90;;;;;;5074311;28;20186;-76
2021/06/24 12:58:32;;;;;;;3.83;0.87;;;16.10;99.90;;;;;;5073501;28;20230;-74
2021/06/24 13:01:14;;;;;;;4.27;1.07;;;16.10;99.90;;;;;;5074184;28;20221;-68
2021/06/24 13:03:48;;;;;;;3.20;1.00;;;16.10;99.90;;;;;;5061503;28;20186;-75
2021/06/24 13:06:22;;;;;;;3.00;0.93;;;16.20;99.90;;;;;;5074132;28;20707;-68
2021/06/24 13:08:54;;;;;;;3.37;0.83;;;16.20;99.90;;;;;;5072430;28;20192;-72
2021/06/24 13:11:24;;;;;;;1.67;0.77;;;16.30;99.90;;;;;;5067625;28;20188;-75
2021/06/24 13:14:10;;;;;;;1.97;0.80;;;16.30;99.90;;;;;;5073568;28;20183;-70